Time;durP1;ratioP1;P1;durP2;ratioP2;P2;SDS_P1;SDS_P2;PMS_P1;PMS_P2;Temp;Humidity;BMP_temperature;BMP_pressure;BME280_temperature;BME280_humidity;BME280_pressure;Samples;Min_cycle;Max_cycle;Signal;HPM_P1;HPM_P2
2022/07/12 00:01:56;;;;;;;2.70;1.63;;;22.70;62.20;;;;;;6100997;23;88627;-85
2022/07/12 00:04:22;;;;;;;2.35;1.73;;;22.70;62.30;;;;;;6074774;23;91127;-85
2022/07/12 00:06:48;;;;;;;1.83;1.73;;;22.70;62.30;;;;;;6102012;23;87080;-85
2022/07/12 00:09:13;;;;;;;1.88;1.73;;;22.70;63.00;;;;;;6099454;23;87637;-85
2022/07/12 00:11:39;;;;;;;2.30;1.70;;;22.70;62.30;;;;;;6074802;23;90491;-84
2022/07/12 00:14:05;;;;;;;1.80;1.70;;;22.70;62.20;;;;;;6101936;23;87622;-85
2022/07/12 00:16:31;;;;;;;2.50;1.80;;;22.70;62.30;;;;;;6101886;23;87088;-86
2022/07/12 00:18:56;;;;;;;4.07;1.92;;;22.70;62.10;;;;;;6102303;23;86183;-86
2022/07/12 00:21:22;;;;;;;1.40;1.30;;;22.70;62.10;;;;;;6101082;23;89800;-85
2022/07/12 00:23:50;;;;;;;2.10;1.67;;;22.70;62.10;;;;;;6099381;23;89356;-86
2022/07/12 00:26:16;;;;;;;1.90;1.70;;;22.70;62.30;;;;;;6100010;23;87811;-85
2022/07/12 00:28:42;;;;;;;2.08;1.70;;;22.70;62.20;;;;;;6100259;23;86948;-86
2022/07/12 00:31:08;;;;;;;1.88;1.65;;;22.70;62.10;;;;;;6075181;23;90356;-84
2022/07/12 00:33:34;;;;;;;2.05;1.70;;;22.60;62.00;;;;;;6101316;23;87664;-86
2022/07/12 00:35:59;;;;;;;1.77;1.67;;;22.70;62.10;;;;;;6101811;23;87998;-85
2022/07/12 00:38:25;;;;;;;1.70;1.60;;;22.70;62.10;;;;;;6100379;23;87294;-85
2022/07/12 00:40:50;;;;;;;1.50;1.40;;;22.70;62.20;;;;;;6101245;23;86840;-85
2022/07/12 00:43:16;;;;;;;1.63;1.52;;;22.70;62.10;;;;;;6075608;23;90529;-85
2022/07/12 00:45:42;;;;;;;1.50;1.40;;;22.70;62.10;;;;;;6099615;23;86952;-86
2022/07/12 00:48:08;;;;;;;1.85;1.60;;;22.70;62.00;;;;;;6101284;23;87335;-86
2022/07/12 00:50:33;;;;;;;1.70;1.60;;;22.60;62.00;;;;;;6074042;23;91469;-85
2022/07/12 00:52:59;;;;;;;3.63;1.80;;;22.70;62.10;;;;;;6100937;23;88184;-85
2022/07/12 00:55:25;;;;;;;1.80;1.70;;;22.60;62.00;;;;;;6101571;23;86806;-85
2022/07/12 00:57:51;;;;;;;2.30;2.10;;;22.70;62.10;;;;;;6101548;23;86860;-86
2022/07/12 01:00:23;;;;;;;1.45;1.35;;;22.70;62.00;;;;;;6100561;23;88002;-85
2022/07/12 01:02:51;;;;;;;1.60;1.50;;;22.60;62.00;;;;;;6101054;23;87596;-86
2022/07/12 01:05:26;;;;;;;2.00;1.80;;;22.60;61.90;;;;;;6074908;23;86944;-85
2022/07/12 01:07:54;;;;;;;1.67;1.58;;;22.70;62.00;;;;;;6102166;23;86119;-86
2022/07/12 01:10:20;;;;;;;1.90;1.70;;;22.60;61.80;;;;;;6102059;23;88150;-84
2022/07/12 01:12:46;;;;;;;2.72;1.92;;;22.60;61.70;;;;;;6074201;23;89765;-85
2022/07/12 01:15:12;;;;;;;1.95;1.63;;;22.70;62.30;;;;;;6101310;23;88200;-85
2022/07/12 01:17:39;;;;;;;2.00;1.85;;;22.60;62.40;;;;;;6075079;23;87904;-85
2022/07/12 01:20:08;;;;;;;2.20;2.00;;;22.70;62.40;;;;;;6074604;23;89211;-85
2022/07/12 01:22:38;;;;;;;1.92;1.80;;;22.60;62.10;;;;;;6099787;23;87322;-85
2022/07/12 01:25:06;;;;;;;1.73;1.63;;;22.60;62.30;;;;;;6075171;23;86834;-85
2022/07/12 01:27:32;;;;;;;1.45;1.35;;;22.60;62.10;;;;;;6073438;23;89291;-85
2022/07/12 01:29:58;;;;;;;2.63;1.55;;;22.70;62.10;;;;;;6101220;23;87871;-86
2022/07/12 01:32:26;;;;;;;1.70;1.60;;;22.60;62.40;;;;;;6101222;23;87487;-84
2022/07/12 01:34:55;;;;;;;1.80;1.70;;;22.60;62.30;;;;;;6101211;23;87399;-86
2022/07/12 01:37:21;;;;;;;1.80;1.70;;;22.60;62.10;;;;;;6100429;23;86786;-85
2022/07/12 01:39:53;;;;;;;1.50;1.40;;;22.60;62.30;;;;;;6072818;23;91633;-85
2022/07/12 01:42:23;;;;;;;1.60;1.50;;;22.60;62.20;;;;;;6075022;23;90947;-86
2022/07/12 01:44:50;;;;;;;1.70;1.60;;;22.60;62.10;;;;;;6102034;23;87409;-85
2022/07/12 01:47:18;;;;;;;1.60;1.50;;;22.60;62.10;;;;;;6074160;23;89077;-85
2022/07/12 01:49:44;;;;;;;1.77;1.67;;;22.60;62.30;;;;;;6073963;23;90448;-86
2022/07/12 01:52:10;;;;;;;1.80;1.70;;;22.60;62.40;;;;;;6101445;23;87609;-85
2022/07/12 01:54:36;;;;;;;1.67;1.58;;;22.60;62.30;;;;;;6101933;23;86825;-84
2022/07/12 01:57:03;;;;;;;1.65;1.55;;;22.60;62.20;;;;;;6075557;23;89919;-85
2022/07/12 01:59:29;;;;;;;1.80;1.70;;;22.60;62.10;;;;;;6101089;23;87619;-85
2022/07/12 02:01:56;;;;;;;2.00;1.80;;;22.60;62.10;;;;;;6100697;23;86943;-85
2022/07/12 02:04:21;;;;;;;1.70;1.60;;;22.60;62.10;;;;;;6100319;23;88305;-86
2022/07/12 02:06:48;;;;;;;1.63;1.52;;;22.60;62.30;;;;;;6074687;23;88226;-85
2022/07/12 02:09:15;;;;;;;2.92;1.50;;;22.60;62.30;;;;;;6074466;23;91850;-85
2022/07/12 02:11:42;;;;;;;1.40;1.30;;;22.60;62.30;;;;;;6073793;23;89085;-85
2022/07/12 02:14:26;;;;;;;1.65;1.40;;;22.60;62.20;;;;;;6101085;23;86758;-86
2022/07/12 02:16:52;;;;;;;1.52;1.42;;;22.60;62.10;;;;;;6073314;23;89828;-85
2022/07/12 02:19:18;;;;;;;1.85;1.75;;;22.60;62.20;;;;;;6100836;23;87954;-85
2022/07/12 02:21:43;;;;;;;1.60;1.50;;;22.60;62.30;;;;;;6074268;23;90091;-86
2022/07/12 02:24:09;;;;;;;1.60;1.50;;;22.60;62.20;;;;;;6099362;23;86908;-85
2022/07/12 02:26:36;;;;;;;1.58;1.48;;;22.60;62.10;;;;;;6101581;23;87152;-85
2022/07/12 02:29:05;;;;;;;1.80;1.50;;;22.60;62.20;;;;;;6073835;23;90651;-86
2022/07/12 02:31:31;;;;;;;;;;;22.60;62.10;;;;;;6100814;23;91706;-85
2022/07/12 02:33:57;;;;;;;1.70;1.60;;;22.60;62.30;;;;;;6075576;23;86982;-85
2022/07/12 02:36:23;;;;;;;1.80;1.33;;;22.60;62.10;;;;;;6073554;23;88174;-85
2022/07/12 02:38:49;;;;;;;1.48;1.38;;;22.60;62.20;;;;;;6100521;23;87464;-85
2022/07/12 02:41:14;;;;;;;1.70;1.60;;;22.50;62.10;;;;;;6101444;23;86857;-84
2022/07/12 02:43:40;;;;;;;1.75;1.65;;;22.60;62.10;;;;;;6100512;23;86959;-85
2022/07/12 02:46:07;;;;;;;1.73;1.63;;;22.50;62.20;;;;;;6073237;23;87371;-85
2022/07/12 02:48:33;;;;;;;2.00;1.80;;;22.60;62.20;;;;;;6100566;23;86947;-85
2022/07/12 02:51:07;;;;;;;1.60;1.50;;;22.60;62.20;;;;;;6074221;23;90268;-86
2022/07/12 02:53:34;;;;;;;1.73;1.60;;;22.60;61.60;;;;;;6101901;23;88496;-86
2022/07/12 02:56:00;;;;;;;1.75;1.63;;;22.60;61.60;;;;;;6074965;23;88252;-85
2022/07/12 02:58:26;;;;;;;1.83;1.70;;;22.60;61.60;;;;;;6100949;23;88328;-85
2022/07/12 03:00:51;;;;;;;1.70;1.60;;;22.50;61.50;;;;;;6101508;23;87665;-84
2022/07/12 03:03:17;;;;;;;1.73;1.63;;;22.60;61.70;;;;;;6101908;23;87417;-85
2022/07/12 03:05:43;;;;;;;2.78;1.85;;;22.50;61.60;;;;;;6074418;23;88283;-85
2022/07/12 03:08:10;;;;;;;1.90;1.80;;;22.50;61.50;;;;;;6101905;23;87252;-84
2022/07/12 03:10:36;;;;;;;1.55;1.45;;;22.50;61.60;;;;;;6076360;23;89454;-84
2022/07/12 03:13:02;;;;;;;1.98;1.77;;;22.60;61.50;;;;;;6075982;23;86899;-85
2022/07/12 03:15:28;;;;;;;1.67;1.58;;;22.50;61.40;;;;;;6101448;23;87353;-85
2022/07/12 03:17:55;;;;;;;1.73;1.50;;;22.50;61.90;;;;;;6101287;23;88888;-85
2022/07/12 03:20:21;;;;;;;1.90;1.50;;;22.50;61.60;;;;;;6075379;23;90771;-85
2022/07/12 03:22:48;;;;;;;1.70;1.60;;;22.50;61.60;;;;;;6102273;23;87216;-85
2022/07/12 03:25:14;;;;;;;1.92;1.73;;;22.50;61.60;;;;;;6102089;23;86921;-85
2022/07/12 03:27:40;;;;;;;1.50;1.40;;;22.60;61.70;;;;;;6102035;23;87655;-85
2022/07/12 03:30:07;;;;;;;1.80;1.70;;;22.50;61.60;;;;;;6101202;23;87608;-85
2022/07/12 03:32:35;;;;;;;1.70;1.60;;;22.50;61.50;;;;;;6101600;23;87339;-85
2022/07/12 03:35:03;;;;;;;1.83;1.60;;;22.50;61.50;;;;;;6077344;23;88436;-85
2022/07/12 03:37:46;;;;;;;2.03;1.83;;;22.50;61.70;;;;;;6101568;23;89696;-85
2022/07/12 03:40:13;;;;;;;1.80;1.63;;;22.50;61.70;;;;;;6102045;23;87302;-85
2022/07/12 03:42:39;;;;;;;2.25;1.77;;;22.50;61.60;;;;;;6074725;23;87829;-85
2022/07/12 03:45:06;;;;;;;2.03;1.77;;;22.50;61.60;;;;;;6101922;23;88147;-84
2022/07/12 03:47:32;;;;;;;1.77;1.67;;;22.50;61.70;;;;;;6075488;23;90780;-84
2022/07/12 03:49:58;;;;;;;1.45;1.30;;;22.50;61.60;;;;;;6074834;23;89596;-85
2022/07/12 03:52:24;;;;;;;2.63;1.45;;;22.50;61.60;;;;;;6074958;23;86851;-85
2022/07/12 03:54:49;;;;;;;1.83;1.73;;;22.50;62.30;;;;;;6102110;23;87160;-85
2022/07/12 03:57:16;;;;;;;1.50;1.40;;;22.50;61.50;;;;;;6101698;23;88250;-85
2022/07/12 03:59:43;;;;;;;1.70;1.60;;;22.50;61.60;;;;;;6100045;23;89977;-85
2022/07/12 04:02:09;;;;;;;1.65;1.55;;;22.50;61.70;;;;;;6101847;23;87050;-84
2022/07/12 04:04:42;;;;;;;1.50;1.40;;;22.50;61.60;;;;;;6075461;23;87934;-86
2022/07/12 04:07:08;;;;;;;1.50;1.40;;;22.50;61.60;;;;;;6101000;23;87790;-85
2022/07/12 04:09:34;;;;;;;1.70;1.60;;;22.50;61.50;;;;;;6100831;23;91316;-85
2022/07/12 04:12:00;;;;;;;2.13;1.92;;;22.50;61.60;;;;;;6102181;23;86909;-85
2022/07/12 04:14:26;;;;;;;1.50;1.40;;;22.50;61.70;;;;;;6099166;23;88734;-85
2022/07/12 04:16:52;;;;;;;1.60;1.50;;;22.50;61.60;;;;;;6101037;23;87965;-85
2022/07/12 04:19:18;;;;;;;1.42;1.33;;;22.50;61.50;;;;;;6099780;23;90303;-85
2022/07/12 04:21:43;;;;;;;1.40;1.30;;;22.50;61.60;;;;;;6075468;23;87332;-86
2022/07/12 04:24:09;;;;;;;2.03;1.83;;;22.50;61.50;;;;;;6102570;23;86334;-85
2022/07/12 04:26:34;;;;;;;1.50;1.40;;;22.50;61.50;;;;;;6101697;23;87551;-85
2022/07/12 04:29:00;;;;;;;1.60;1.48;;;22.50;61.70;;;;;;6101994;23;87448;-86
2022/07/12 04:31:26;;;;;;;2.00;1.60;;;22.50;61.60;;;;;;6101231;23;87857;-85
2022/07/12 04:33:51;;;;;;;2.15;1.70;;;22.40;61.50;;;;;;6075440;23;89632;-84
2022/07/12 04:36:17;;;;;;;1.75;1.65;;;22.50;61.40;;;;;;6100520;23;88108;-84
2022/07/12 04:38:43;;;;;;;2.00;1.70;;;22.50;61.30;;;;;;6100498;23;88105;-85
2022/07/12 04:41:08;;;;;;;1.70;1.60;;;22.40;61.50;;;;;;6074689;23;88772;-85
2022/07/12 04:43:34;;;;;;;1.77;1.67;;;22.50;61.50;;;;;;6100616;23;87701;-85
2022/07/12 04:46:18;;;;;;;2.15;1.80;;;22.50;61.70;;;;;;6075093;23;90513;-85
2022/07/12 04:48:44;;;;;;;1.60;1.50;;;22.60;61.70;;;;;;6101561;23;87656;-85
2022/07/12 04:51:10;;;;;;;2.45;2.25;;;22.50;61.60;;;;;;6074090;23;87462;-85
2022/07/12 04:53:36;;;;;;;2.03;1.83;;;22.50;61.50;;;;;;6074953;23;89396;-85
2022/07/12 04:56:01;;;;;;;1.95;1.75;;;22.60;61.50;;;;;;6099527;23;91242;-84
2022/07/12 04:58:27;;;;;;;1.75;1.60;;;22.60;61.50;;;;;;6075262;23;90795;-86
2022/07/12 05:00:53;;;;;;;2.05;1.85;;;22.60;61.40;;;;;;6101006;23;87443;-86
2022/07/12 05:03:19;;;;;;;1.70;1.58;;;22.60;61.50;;;;;;6101680;23;86999;-85
2022/07/12 05:05:44;;;;;;;1.65;1.40;;;22.60;61.40;;;;;;6074688;23;87862;-85
2022/07/12 05:08:10;;;;;;;1.67;1.58;;;22.60;61.50;;;;;;6101412;23;87160;-84
2022/07/12 05:10:36;;;;;;;1.98;1.42;;;22.60;61.40;;;;;;6099603;23;86900;-85
2022/07/12 05:13:01;;;;;;;1.70;1.60;;;22.60;61.50;;;;;;6101343;23;86411;-85
2022/07/12 05:15:27;;;;;;;1.75;1.40;;;22.70;61.60;;;;;;6101045;23;88248;-85
2022/07/12 05:17:53;;;;;;;1.60;1.40;;;22.60;61.60;;;;;;6099736;23;89832;-85
2022/07/12 05:20:19;;;;;;;1.83;1.58;;;22.70;61.70;;;;;;6101390;23;87863;-85
2022/07/12 05:22:44;;;;;;;1.92;1.70;;;22.70;61.60;;;;;;6075233;23;89656;-85
2022/07/12 05:25:10;;;;;;;2.03;1.83;;;22.70;61.70;;;;;;6099692;23;90289;-84
2022/07/12 05:27:36;;;;;;;1.42;1.33;;;22.70;61.70;;;;;;6100406;23;89119;-85
2022/07/12 05:30:19;;;;;;;1.75;1.40;;;22.70;62.50;;;;;;6102290;23;87034;-85
2022/07/12 05:32:44;;;;;;;1.52;1.40;;;22.70;62.00;;;;;;6097764;23;90019;-85
2022/07/12 05:35:10;;;;;;;1.60;1.50;;;22.70;61.90;;;;;;6099659;23;88234;-86
2022/07/12 05:37:35;;;;;;;2.20;1.80;;;22.70;61.80;;;;;;6100043;23;87713;-86
2022/07/12 05:40:01;;;;;;;1.80;1.50;;;22.70;62.00;;;;;;6100605;23;87423;-85
2022/07/12 05:42:27;;;;;;;1.67;1.48;;;22.70;62.70;;;;;;6100700;23;86930;-84
2022/07/12 05:44:53;;;;;;;1.55;1.45;;;22.70;62.00;;;;;;6099377;23;91300;-85
2022/07/12 05:47:19;;;;;;;2.47;1.75;;;22.70;61.90;;;;;;6099046;23;90911;-86
2022/07/12 05:49:47;;;;;;;1.50;1.40;;;22.70;61.80;;;;;;6101342;23;87237;-85
2022/07/12 05:54:59;;;;;;;6.43;1.52;;;22.80;62.00;;;;;;6099181;23;87484;-84
2022/07/12 05:57:24;;;;;;;3.85;2.00;;;22.70;60.10;;;;;;6073982;23;90167;-85
2022/07/12 05:59:50;;;;;;;7.82;4.25;;;22.70;60.30;;;;;;6100804;23;86883;-84
2022/07/12 06:02:16;;;;;;;6.72;3.85;;;22.70;61.20;;;;;;6098653;23;88171;-85
2022/07/12 06:04:41;;;;;;;9.18;5.03;;;22.70;61.00;;;;;;6101158;23;88488;-85
2022/07/12 06:07:07;;;;;;;7.45;5.30;;;22.70;61.50;;;;;;6103280;23;87015;-85
2022/07/12 06:09:33;;;;;;;9.75;5.22;;;22.60;61.70;;;;;;6098228;23;87815;-86
2022/07/12 06:11:58;;;;;;;11.68;5.28;;;22.60;61.50;;;;;;6099928;23;87581;-85
2022/07/12 06:14:24;;;;;;;8.52;5.43;;;22.60;61.50;;;;;;6100828;23;88011;-85
2022/07/12 06:16:50;;;;;;;8.52;5.63;;;22.60;61.50;;;;;;6101833;23;87636;-85
2022/07/12 06:19:15;;;;;;;9.68;6.00;;;22.60;61.60;;;;;;6100915;23;87178;-85
2022/07/12 06:21:41;;;;;;;22.05;6.68;;;22.60;61.60;;;;;;6097729;23;89694;-86
2022/07/12 06:24:07;;;;;;;13.55;5.30;;;22.60;62.00;;;;;;6098407;23;90305;-84
2022/07/12 06:26:32;;;;;;;16.35;6.30;;;22.60;62.10;;;;;;6101842;23;87202;-84
2022/07/12 06:28:58;;;;;;;10.05;5.53;;;22.70;62.20;;;;;;6102357;23;86729;-84
2022/07/12 06:31:25;;;;;;;7.93;6.53;;;22.70;62.00;;;;;;6101653;23;87003;-84
2022/07/12 06:33:50;;;;;;;9.93;6.72;;;22.60;62.00;;;;;;6098376;23;91558;-84
2022/07/12 06:36:16;;;;;;;7.03;6.07;;;22.60;61.90;;;;;;6101410;23;87233;-84
2022/07/12 06:38:41;;;;;;;9.75;6.00;;;22.60;62.10;;;;;;6101621;23;87008;-85
2022/07/12 06:41:07;;;;;;;8.98;6.13;;;22.60;62.20;;;;;;6102387;23;87253;-84
2022/07/12 06:43:40;;;;;;;9.63;6.00;;;22.60;62.40;;;;;;6102539;23;87987;-84
2022/07/12 06:46:06;;;;;;;9.68;7.13;;;22.60;62.30;;;;;;6100223;23;89905;-84
2022/07/12 06:48:32;;;;;;;11.13;7.38;;;22.60;62.60;;;;;;6102046;23;87121;-84
2022/07/12 06:50:58;;;;;;;8.68;6.57;;;22.60;62.40;;;;;;6104971;23;86468;-83
2022/07/12 06:53:26;;;;;;;7.20;6.50;;;22.60;62.40;;;;;;6104601;23;87840;-83
2022/07/12 06:55:52;;;;;;;7.85;7.05;;;22.60;62.70;;;;;;6104300;23;86938;-83
2022/07/12 06:58:17;;;;;;;9.82;6.60;;;22.60;62.80;;;;;;6098564;23;87777;-83
2022/07/12 07:00:45;;;;;;;9.07;6.85;;;22.60;62.90;;;;;;6103502;23;86880;-83
2022/07/12 07:03:11;;;;;;;6.65;6.05;;;22.70;62.60;;;;;;6102930;23;87594;-83
2022/07/12 07:05:41;;;;;;;8.93;6.82;;;22.60;62.60;;;;;;6101510;23;87611;-83
2022/07/12 07:08:07;;;;;;;18.63;8.77;;;22.60;62.30;;;;;;6074484;23;87058;-83
2022/07/12 07:10:33;;;;;;;68.00;19.80;;;22.70;62.20;;;;;;6081197;23;86952;-83
2022/07/12 07:12:59;;;;;;;45.22;15.55;;;22.70;62.30;;;;;;6100182;23;87687;-84
2022/07/12 07:15:26;;;;;;;46.10;13.02;;;22.60;62.00;;;;;;6097489;23;87499;-84
2022/07/12 07:17:51;;;;;;;19.70;10.73;;;22.60;61.90;;;;;;6097706;23;87680;-84
2022/07/12 07:20:17;;;;;;;22.30;9.88;;;22.60;61.90;;;;;;6098353;23;87556;-83
2022/07/12 07:22:42;;;;;;;16.67;9.07;;;22.70;61.90;;;;;;6097081;23;87929;-82
2022/07/12 07:25:08;;;;;;;22.80;8.90;;;22.60;61.80;;;;;;6096072;23;89130;-82
2022/07/12 07:27:38;;;;;;;16.48;9.40;;;22.70;61.60;;;;;;6096701;23;87011;-82
2022/07/12 07:32:48;;;;;;;14.95;8.68;;;22.70;62.20;;;;;;6098291;23;89728;-83
2022/07/12 07:35:14;;;;;;;17.80;7.78;;;22.70;62.30;;;;;;6095655;23;89252;-85
2022/07/12 07:37:39;;;;;;;14.82;8.00;;;22.60;62.40;;;;;;6097102;23;87369;-82
2022/07/12 07:40:06;;;;;;;14.85;8.23;;;22.70;62.30;;;;;;6097527;23;86885;-83
2022/07/12 07:42:31;;;;;;;12.98;8.25;;;22.70;62.20;;;;;;6098243;23;88042;-83
2022/07/12 07:44:57;;;;;;;12.93;7.00;;;22.70;62.30;;;;;;6096327;23;88901;-82
2022/07/12 07:47:22;;;;;;;12.10;7.10;;;22.70;62.90;;;;;;6097530;23;88196;-83
2022/07/12 07:49:48;;;;;;;11.10;7.07;;;22.70;62.90;;;;;;6071182;23;89365;-83
2022/07/12 07:52:14;;;;;;;13.90;7.60;;;22.70;62.90;;;;;;6097850;23;88588;-82
2022/07/12 07:54:39;;;;;;;14.25;7.47;;;22.70;63.10;;;;;;6098358;23;87573;-83
2022/07/12 07:57:14;;;;;;;10.98;6.93;;;22.70;63.30;;;;;;6099348;23;86862;-84
2022/07/12 07:59:39;;;;;;;8.65;6.55;;;22.70;63.50;;;;;;6099011;23;87280;-82
2022/07/12 08:02:05;;;;;;;7.93;6.93;;;22.70;63.60;;;;;;6096312;23;87978;-82
2022/07/12 08:04:31;;;;;;;9.45;6.38;;;22.70;64.00;;;;;;6098298;23;87598;-82
2022/07/12 08:06:58;;;;;;;12.30;6.13;;;22.70;63.50;;;;;;6095672;23;87029;-83
2022/07/12 08:09:23;;;;;;;22.67;8.43;;;22.70;64.30;;;;;;6097641;23;87275;-83
2022/07/12 08:11:49;;;;;;;31.00;9.98;;;22.70;63.90;;;;;;6096785;23;88951;-84
2022/07/12 08:14:15;;;;;;;28.70;9.80;;;22.70;63.50;;;;;;6044125;23;1248283;-84
2022/07/12 08:16:40;;;;;;;27.50;10.60;;;22.70;63.60;;;;;;6097805;23;87030;-84
2022/07/12 08:19:06;;;;;;;24.10;9.15;;;22.70;63.70;;;;;;6100318;23;86982;-83
2022/07/12 08:21:32;;;;;;;23.00;9.55;;;22.70;65.00;;;;;;6098193;23;87556;-85
2022/07/12 08:23:58;;;;;;;17.88;8.77;;;22.70;63.80;;;;;;6072824;23;87607;-84
2022/07/12 08:26:26;;;;;;;21.67;9.18;;;22.70;63.50;;;;;;6099039;23;86904;-84
2022/07/12 08:28:52;;;;;;;16.25;8.93;;;22.70;64.10;;;;;;6100068;23;86285;-84
2022/07/12 08:31:18;;;;;;;21.45;9.10;;;22.70;64.20;;;;;;6099767;23;88808;-83
2022/07/12 08:33:43;;;;;;;20.17;9.20;;;22.70;64.00;;;;;;6097179;23;89606;-84
2022/07/12 08:36:09;;;;;;;15.25;9.00;;;22.70;64.80;;;;;;6097409;23;87764;-84
2022/07/12 08:38:44;;;;;;;19.27;9.48;;;22.70;64.80;;;;;;6099278;23;87251;-84
2022/07/12 08:41:12;;;;;;;37.35;12.52;;;22.70;64.40;;;;;;6099473;23;87009;-84
2022/07/12 08:43:38;;;;;;;62.58;20.20;;;22.70;65.00;;;;;;6098562;23;87895;-83
2022/07/12 08:46:08;;;;;;;70.70;20.13;;;22.70;64.70;;;;;;6072105;23;86917;-83
2022/07/12 08:48:35;;;;;;;59.17;19.33;;;22.80;65.10;;;;;;6097831;23;87265;-84
2022/07/12 08:51:06;;;;;;;37.50;14.50;;;22.80;64.90;;;;;;6097762;23;87617;-84
2022/07/12 08:53:32;;;;;;;35.97;14.40;;;22.80;64.90;;;;;;6098729;23;87694;-84
2022/07/12 08:55:58;;;;;;;36.58;13.38;;;22.80;64.70;;;;;;6098436;23;87305;-84
2022/07/12 08:58:24;;;;;;;29.60;12.75;;;22.80;65.10;;;;;;6099158;23;87332;-85
2022/07/12 09:00:50;;;;;;;34.75;14.05;;;22.80;65.10;;;;;;6071712;23;90910;-84
2022/07/12 09:03:17;;;;;;;31.80;11.80;;;22.80;65.10;;;;;;6098496;23;88521;-84
2022/07/12 09:06:05;;;;;;;26.35;11.80;;;22.80;65.20;;;;;;6096779;23;87371;-85
2022/07/12 09:08:34;;;;;;;22.13;11.23;;;22.80;66.00;;;;;;6098543;23;87344;-84
2022/07/12 09:11:02;;;;;;;21.40;10.45;;;22.80;66.10;;;;;;6097839;23;87905;-83
2022/07/12 09:13:55;;;;;;;26.52;11.43;;;22.70;66.90;;;;;;6070373;23;88335;-85
2022/07/12 09:16:23;;;;;;;30.40;11.90;;;22.80;67.70;;;;;;6073203;23;87294;-85
2022/07/12 09:19:09;;;;;;;24.33;10.77;;;22.80;67.60;;;;;;6072334;23;88541;-85
2022/07/12 09:21:35;;;;;;;24.83;9.77;;;22.80;68.80;;;;;;6097497;23;87391;-83
2022/07/12 09:24:00;;;;;;;17.02;9.13;;;22.80;68.70;;;;;;6072221;23;89012;-84
2022/07/12 09:26:35;;;;;;;21.02;8.88;;;22.90;67.60;;;;;;6099975;23;87911;-87
2022/07/12 09:29:12;;;;;;;21.70;9.15;;;22.90;67.40;;;;;;6073886;23;89150;-86
2022/07/12 09:31:40;;;;;;;15.70;8.50;;;22.90;67.20;;;;;;6099423;23;88985;-87
2022/07/12 09:36:59;;;;;;;18.98;8.70;;;22.90;67.50;;;;;;6101164;23;87101;-86
2022/07/12 09:39:25;;;;;;;15.73;8.02;;;22.90;66.70;;;;;;6101707;23;87497;-87
2022/07/12 09:41:54;;;;;;;18.95;8.13;;;22.90;66.50;;;;;;6100735;23;87721;-85
2022/07/12 09:44:20;;;;;;;14.18;9.00;;;22.80;66.70;;;;;;6099785;23;87263;-85
2022/07/12 09:46:48;;;;;;;15.85;8.57;;;22.80;66.40;;;;;;6100190;23;87045;-85
2022/07/12 09:49:14;;;;;;;16.40;7.05;;;22.80;66.30;;;;;;6101032;23;87255;-86
2022/07/12 09:51:42;;;;;;;14.82;7.97;;;22.90;66.40;;;;;;6097096;23;88990;-85
2022/07/12 09:54:08;;;;;;;14.35;7.43;;;22.90;67.40;;;;;;6095598;23;89171;-87
2022/07/12 09:56:37;;;;;;;18.15;7.88;;;22.90;66.90;;;;;;6068827;23;87290;-87
2022/07/12 09:59:07;;;;;;;13.88;7.80;;;22.90;66.90;;;;;;6095082;23;86831;-87
2022/07/12 10:01:41;;;;;;;14.27;7.70;;;22.90;66.60;;;;;;6096428;23;88038;-85
2022/07/12 10:04:09;;;;;;;14.98;6.90;;;22.90;66.30;;;;;;6096175;23;87868;-86
2022/07/12 10:06:34;;;;;;;17.33;7.80;;;22.90;66.60;;;;;;6097279;23;87254;-87
2022/07/12 10:09:00;;;;;;;14.10;7.65;;;22.90;67.40;;;;;;6097587;23;86304;-86
2022/07/12 10:11:27;;;;;;;15.85;7.88;;;22.90;67.30;;;;;;6095935;23;87561;-86
2022/07/12 10:13:54;;;;;;;15.75;7.20;;;22.90;66.90;;;;;;6095861;23;87764;-87
2022/07/12 10:16:33;;;;;;;10.90;6.95;;;22.90;67.40;;;;;;6095586;23;88409;-85
2022/07/12 10:19:17;;;;;;;;;;;22.90;67.00;;;;;;6097914;23;87379;-86
2022/07/12 10:21:51;;;;;;;23.60;7.68;;;22.90;66.60;;;;;;6099500;23;88584;-86
2022/07/12 10:24:44;;;;;;;14.65;7.30;;;22.90;66.70;;;;;;6102727;23;87783;-86
2022/07/12 10:27:13;;;;;;;9.02;6.53;;;22.90;66.80;;;;;;6095393;23;86859;-85
2022/07/12 10:29:39;;;;;;;13.53;7.27;;;22.90;66.60;;;;;;6102875;23;87317;-87
2022/07/12 10:32:25;;;;;;;16.10;7.00;;;22.90;66.30;;;;;;6077259;23;88136;-86
2022/07/12 10:35:21;;;;;;;9.80;6.60;;;22.90;66.50;;;;;;6104230;23;88396;-86
2022/07/12 10:38:16;;;;;;;11.90;6.13;;;22.90;66.00;;;;;;6091280;23;87073;-85
2022/07/12 10:40:50;;;;;;;7.72;6.38;;;22.90;65.90;;;;;;6078103;23;89525;-84
2022/07/12 10:43:19;;;;;;;14.45;6.20;;;22.90;65.80;;;;;;6076320;23;91479;-87
2022/07/12 10:45:47;;;;;;;8.07;6.20;;;22.90;65.30;;;;;;6104049;23;89098;-85
2022/07/12 10:48:12;;;;;;;13.25;6.53;;;23.00;65.30;;;;;;6098798;23;87207;-85
2022/07/12 10:50:55;;;;;;;11.98;5.80;;;22.90;65.20;;;;;;6100862;23;87192;-85
2022/07/12 10:53:33;;;;;;;10.23;5.65;;;22.90;65.20;;;;;;6100968;23;87254;-84
2022/07/12 10:56:18;;;;;;;9.68;6.00;;;22.90;65.00;;;;;;6101297;23;87438;-85
2022/07/12 10:58:46;;;;;;;9.50;5.70;;;22.90;65.00;;;;;;6101292;23;87010;-83
2022/07/12 11:01:19;;;;;;;11.02;6.00;;;22.90;65.00;;;;;;6074620;23;87827;-85
2022/07/12 11:03:47;;;;;;;9.55;5.78;;;22.90;64.90;;;;;;6101236;23;88360;-84
2022/07/12 11:06:18;;;;;;;9.98;6.22;;;22.90;64.60;;;;;;6100768;23;87319;-84
2022/07/12 11:08:59;;;;;;;10.48;5.32;;;22.90;64.80;;;;;;6100387;23;87884;-83
2022/07/12 11:11:30;;;;;;;10.55;6.30;;;22.90;64.70;;;;;;6101021;23;86799;-85
2022/07/12 11:13:57;;;;;;;12.77;5.57;;;23.00;64.80;;;;;;6101748;23;87937;-84
2022/07/12 11:16:23;;;;;;;9.45;5.75;;;22.90;64.40;;;;;;6074709;23;88275;-84
2022/07/12 11:18:50;;;;;;;8.23;5.50;;;22.90;64.40;;;;;;6100121;23;87101;-84
2022/07/12 11:21:16;;;;;;;11.32;5.10;;;23.00;64.50;;;;;;6074530;23;88148;-85
2022/07/12 11:23:42;;;;;;;7.45;4.78;;;22.90;64.30;;;;;;6101941;23;87804;-84
2022/07/12 11:26:10;;;;;;;7.18;5.18;;;22.90;64.10;;;;;;6101734;23;86596;-84
2022/07/12 11:28:36;;;;;;;6.47;5.85;;;22.90;64.10;;;;;;6102212;23;87032;-83
2022/07/12 11:31:06;;;;;;;6.65;5.28;;;22.90;64.00;;;;;;6074783;23;89542;-85
2022/07/12 11:33:37;;;;;;;6.15;5.00;;;22.90;64.20;;;;;;6101358;23;87788;-85
2022/07/12 11:36:05;;;;;;;8.77;5.20;;;23.00;63.90;;;;;;6075984;23;91107;-84
2022/07/12 11:38:31;;;;;;;8.63;5.28;;;23.00;64.10;;;;;;6077372;23;86875;-85
2022/07/12 11:40:59;;;;;;;10.10;5.55;;;23.00;64.30;;;;;;6077097;23;88921;-85
2022/07/12 11:43:26;;;;;;;8.50;5.60;;;23.00;64.40;;;;;;6076568;23;88630;-85
2022/07/12 11:45:59;;;;;;;7.35;5.50;;;23.00;65.00;;;;;;6103034;23;87072;-84
2022/07/12 11:48:26;;;;;;;8.68;5.47;;;23.00;65.10;;;;;;6076561;23;87167;-85
2022/07/12 11:50:53;;;;;;;7.00;5.93;;;23.00;65.50;;;;;;6103381;23;86695;-85
2022/07/12 11:53:26;;;;;;;12.27;5.50;;;23.00;65.80;;;;;;6101675;23;88596;-84
2022/07/12 11:55:55;;;;;;;9.10;5.90;;;23.00;65.70;;;;;;6104850;23;87789;-85
2022/07/12 11:58:20;;;;;;;7.33;4.90;;;23.00;66.30;;;;;;6077738;23;87908;-85
2022/07/12 12:00:48;;;;;;;7.00;5.32;;;23.00;65.80;;;;;;6075777;23;88399;-85
2022/07/12 12:03:16;;;;;;;6.63;5.13;;;23.00;65.30;;;;;;6103836;23;87837;-87
2022/07/12 12:05:42;;;;;;;8.38;6.10;;;23.00;65.10;;;;;;6103307;23;88369;-85
2022/07/12 12:08:12;;;;;;;6.97;5.28;;;23.00;65.30;;;;;;6104107;23;88217;-85
2022/07/12 12:10:39;;;;;;;7.80;5.57;;;23.00;65.60;;;;;;6104618;23;87014;-86
2022/07/12 12:13:14;;;;;;;8.57;5.80;;;23.00;65.70;;;;;;6078083;23;90149;-86
2022/07/12 12:15:40;;;;;;;10.02;5.88;;;23.00;65.60;;;;;;6077851;23;90192;-86
2022/07/12 12:18:07;;;;;;;8.60;5.57;;;23.00;65.60;;;;;;6077858;23;86955;-87
2022/07/12 12:20:35;;;;;;;6.03;5.40;;;23.00;65.60;;;;;;6077299;23;88450;-86
2022/07/12 12:23:02;;;;;;;6.97;4.90;;;23.00;65.40;;;;;;6076148;23;90224;-86
2022/07/12 12:25:29;;;;;;;8.00;5.80;;;23.00;65.20;;;;;;6104186;23;88747;-86
2022/07/12 12:27:56;;;;;;;6.78;4.82;;;23.00;65.00;;;;;;6078060;23;87252;-86
2022/07/12 12:30:22;;;;;;;5.32;4.82;;;23.00;64.70;;;;;;6102705;23;89511;-85
2022/07/12 12:32:56;;;;;;;6.47;4.97;;;23.00;64.70;;;;;;6077433;23;89453;-86
2022/07/12 12:35:30;;;;;;;8.93;4.90;;;23.00;64.50;;;;;;6077851;23;89351;-86
2022/07/12 12:38:17;;;;;;;5.82;4.93;;;23.00;64.30;;;;;;6103993;23;87399;-86
2022/07/12 12:40:52;;;;;;;6.43;4.82;;;23.00;64.30;;;;;;6101999;23;89088;-87
2022/07/12 12:43:21;;;;;;;6.95;5.20;;;23.00;64.00;;;;;;6103889;23;87606;-87
2022/07/12 12:45:50;;;;;;;7.68;5.13;;;23.00;64.10;;;;;;6103968;23;86872;-87
2022/07/12 12:48:27;;;;;;;5.68;4.72;;;23.00;63.90;;;;;;6103203;23;88375;-88
2022/07/12 12:50:54;;;;;;;7.72;4.72;;;23.00;64.00;;;;;;6104134;23;86843;-86
2022/07/12 12:53:24;;;;;;;5.50;4.50;;;23.00;63.90;;;;;;6075604;23;90536;-87
2022/07/12 12:55:56;;;;;;;6.60;4.53;;;23.00;64.10;;;;;;6076515;23;89968;-87